Challis, ID (83226)

6:18 PM MST on February 13, 2016 (GMT -0700)
Challis | | Change Station
CLOSE
Current Station
Airport
Location: Challis,
Elevation: 5072 ft
Nearby Weather Stations

Elev 5072 ft 44.52 °N, 114.21 °W | Updated 23 minutes ago

Mostly Cloudy
Mostly Cloudy
36 °F
Feels Like 33 °F
N
4
Wind Variable Wind from ESE

Today
High -- | Low -- °F
--% Chance of Precip.
Yesterday
High -- | Low -- °F
Precip. -- in
Pressure 30.25 in
Visibility 10.0 miles
Clouds Few 9000 ft
Mostly Cloudy 11000 ft
Windchill 33 °F
Dew Point 23 °F
Humidity 59%
Rainfall 0.00 in
Snow Depth Not available.
7:40 AM 6:02 PM
Waxing Crescent, 36% visible
METAR KLLJ 140055Z AUTO 12003KT 10SM FEW090 BKN110 02/M05 A3016 RMK AO2 SLP243 T00221050
Pressure 30.25 in
Visibility 10.0 miles
Clouds Few 9000 ft
Mostly Cloudy 11000 ft
Windchill 33 °F
Dew Point 23 °F
Humidity 59%
Rainfall 0.00 in
Snow Depth Not available.
7:40 AM 6:02 PM
Waxing Crescent, 36% visible
METAR KLLJ 140055Z AUTO 12003KT 10SM FEW090 BKN110 02/M05 A3016 RMK AO2 SLP243 T00221050

10-Day Weather Forecast

Almanac

Astronomy

Feb. 13, 2016 Rise Set
Actual Time
Civil Twilight
Nautical Twilight
Astronomical Twilight
Moon
Length of Visible Light
Length of Day
Tomorrow will be .
, % of the Moon is Illuminated

Today's Extremes

State Highs State Lows

Community

WunderPhotos

Upload Photos

1,892,723 photos uploaded!

WunderBlog® & News

Nearby

Air Quality

  Air Quality AQ Index Pollutant
Not available.

Snow Depth

Station Depth Elevation

Earthquake Activity

City Distance Mag. Time & Date
Minimum magnitude displayed is 2.5.

Coastal Water Temperatures

Place Temperature

Stations

Nearby Weather Stations

Station Location Temp. Windchill Dew Point Humidity Wind Precip. Elev Updated Type
                   

Watches & Warnings

There are currently no watches in effect.